createdAt,value
2023-05-09T13:00:02.148Z,18.63
2023-05-09T13:02:35.358Z,19.05
2023-05-09T13:05:10.923Z,19.02
2023-05-09T13:07:42.289Z,18.10
2023-05-09T13:10:13.737Z,22.70
2023-05-09T13:12:44.588Z,19.27
2023-05-09T13:15:14.218Z,19.40
2023-05-09T13:17:42.236Z,19.13
2023-05-09T13:20:10.702Z,19.43
2023-05-09T13:22:38.726Z,19.27
2023-05-09T13:25:07.499Z,18.43
2023-05-09T13:27:35.739Z,17.67
2023-05-09T13:30:03.760Z,18.15
2023-05-09T13:32:32.842Z,17.92
2023-05-09T13:35:00.601Z,18.83
2023-05-09T13:37:28.761Z,18.13
2023-05-09T13:39:56.601Z,17.73
2023-05-09T13:42:24.297Z,17.53
2023-05-09T13:44:52.064Z,17.60
2023-05-09T13:47:19.786Z,16.77
2023-05-09T15:18:34.427Z,8.73
2023-05-09T15:21:02.023Z,9.57
2023-05-09T15:23:29.976Z,10.18
2023-05-09T15:25:57.606Z,10.57
2023-05-09T15:28:25.166Z,10.07
2023-05-09T15:30:53.288Z,7.80
2023-05-09T15:33:21.115Z,7.28
2023-05-09T15:35:50.139Z,5.28
2023-05-09T15:38:17.954Z,5.13
2023-05-09T15:40:45.619Z,5.53
2023-05-09T15:43:13.605Z,4.13
2023-05-09T15:45:45.348Z,4.63
2023-05-09T15:48:13.380Z,4.90
2023-05-09T15:50:42.251Z,5.05
2023-05-09T15:53:11.412Z,5.03
2023-05-09T15:55:39.097Z,4.80
2023-05-09T15:58:08.515Z,5.53
2023-05-09T16:00:36.154Z,6.15
2023-05-09T16:03:03.928Z,5.80
2023-05-09T16:05:31.791Z,6.07
2023-05-09T16:07:59.444Z,5.95
2023-05-09T16:10:28.379Z,5.97
2023-05-09T16:12:56.078Z,5.85
2023-05-09T16:15:23.924Z,5.43
2023-05-09T16:17:51.600Z,5.97
2023-05-09T16:20:19.323Z,6.80
2023-05-09T16:22:47.062Z,7.00
2023-05-09T16:25:14.907Z,5.35
2023-05-09T16:27:44.246Z,5.00
2023-05-09T16:30:12.979Z,4.68
2023-05-09T16:32:40.847Z,4.72
2023-05-09T16:35:09.457Z,4.47
2023-05-09T16:37:37.337Z,4.10
2023-05-09T16:40:05.780Z,4.47
2023-05-09T16:42:33.434Z,3.55
2023-05-09T16:45:02.476Z,2.60
2023-05-09T16:47:30.171Z,2.83
2023-05-09T16:49:57.798Z,1.75
2023-05-09T16:52:25.380Z,1.90
2023-05-09T16:54:54.589Z,3.22
2023-05-09T16:57:22.417Z,1.92
2023-05-09T16:59:50.090Z,1.63
2023-05-09T17:02:19.063Z,2.20
2023-05-09T17:04:46.683Z,1.58
2023-05-09T17:07:15.527Z,1.85
2023-05-09T17:09:43.571Z,1.60
2023-05-09T17:12:16.310Z,1.80
2023-05-09T17:14:44.000Z,2.50
2023-05-09T17:17:12.962Z,2.53
2023-05-09T17:19:42.772Z,2.08
2023-05-09T17:22:10.876Z,2.20
2023-05-09T17:24:38.714Z,2.22
2023-05-09T17:27:06.427Z,2.45
2023-05-09T17:29:34.133Z,2.80
2023-05-09T17:32:01.868Z,2.90
2023-05-09T17:34:29.985Z,2.78
2023-05-09T17:37:00.810Z,2.67
2023-05-09T17:39:28.651Z,3.30
2023-05-09T17:41:56.288Z,3.05
2023-05-09T17:44:23.923Z,4.10
2023-05-09T17:46:51.891Z,3.25
2023-05-09T17:49:19.606Z,3.35
2023-05-09T17:51:47.247Z,3.35
2023-05-09T17:54:18.901Z,5.00
2023-05-09T17:56:47.381Z,4.15
2023-05-09T17:59:14.995Z,5.95
2023-05-09T18:01:42.693Z,3.35
2023-05-09T18:04:10.385Z,3.67
2023-05-09T18:06:38.050Z,4.00
2023-05-09T18:09:06.208Z,3.60
2023-05-09T18:11:35.285Z,3.50
2023-05-09T18:14:03.540Z,3.78
2023-05-09T18:16:31.254Z,4.43
2023-05-09T18:18:59.848Z,4.50
2023-05-09T18:21:28.654Z,4.80
2023-05-09T18:23:56.249Z,4.60
2023-05-09T18:26:23.867Z,4.88
2023-05-09T18:28:52.852Z,4.22
2023-05-09T18:31:20.427Z,3.42
2023-05-09T18:33:48.291Z,3.47
2023-05-09T18:36:16.049Z,3.40
2023-05-09T18:38:44.486Z,4.10
2023-05-09T18:41:13.177Z,3.88
2023-05-09T18:43:45.726Z,4.10
2023-05-09T18:46:17.363Z,5.75
2023-05-09T18:48:45.717Z,4.30
2023-05-09T18:51:13.404Z,4.20
2023-05-09T18:53:41.349Z,4.40
2023-05-09T18:56:09.212Z,4.43
2023-05-09T18:58:37.145Z,4.47
2023-05-09T19:01:04.966Z,5.47
2023-05-09T19:03:34.289Z,3.97
2023-05-09T19:06:01.979Z,4.38
2023-05-09T19:08:30.456Z,5.18
2023-05-09T19:10:58.018Z,4.65
2023-05-09T19:13:25.675Z,4.38
2023-05-09T19:15:53.390Z,5.18
2023-05-09T19:18:21.078Z,4.78
2023-05-09T19:20:50.068Z,4.78
2023-05-09T19:23:17.695Z,4.28
2023-05-09T19:25:45.521Z,5.38
2023-05-09T19:28:14.556Z,5.97
2023-05-09T19:30:42.291Z,4.90
2023-05-09T19:33:09.996Z,5.57
2023-05-09T19:35:38.284Z,5.00
2023-05-09T19:38:07.539Z,5.80
2023-05-09T19:40:35.214Z,5.30
2023-05-09T19:43:02.851Z,5.35
2023-05-09T19:45:31.039Z,5.88
2023-05-09T19:47:58.848Z,6.45
2023-05-09T19:50:26.542Z,6.40
2023-05-09T19:52:54.192Z,6.60
2023-05-09T19:55:23.457Z,7.38
2023-05-09T19:57:51.143Z,7.00
2023-05-09T20:00:19.644Z,6.93
2023-05-09T20:02:47.401Z,7.35
2023-05-09T20:05:15.192Z,7.20
2023-05-09T20:07:43.047Z,7.43
2023-05-09T20:10:12.796Z,7.25
2023-05-09T20:12:42.340Z,6.97
2023-05-09T20:15:10.642Z,6.68
2023-05-09T20:17:38.429Z,6.57
2023-05-09T20:20:07.387Z,8.68
2023-05-09T20:22:35.147Z,8.05
2023-05-09T20:25:02.930Z,6.93
2023-05-09T20:27:30.672Z,7.45
2023-05-09T20:29:59.821Z,7.40
2023-05-09T20:32:28.122Z,7.03
2023-05-09T20:34:56.200Z,7.35
2023-05-09T20:37:23.904Z,7.60
2023-05-09T20:39:51.629Z,6.90
2023-05-09T20:42:19.646Z,7.72
2023-05-09T20:44:48.613Z,7.28
2023-05-09T20:47:18.368Z,7.43
2023-05-09T20:49:46.163Z,7.10
2023-05-09T20:52:13.936Z,7.85
2023-05-09T20:54:41.670Z,7.30
2023-05-09T20:57:09.570Z,7.35
2023-05-09T20:59:37.337Z,9.18
2023-05-09T21:02:05.086Z,7.63
2023-05-09T21:04:34.283Z,7.43
2023-05-09T21:07:02.037Z,7.65
2023-05-09T21:09:29.803Z,8.00
2023-05-09T21:11:57.575Z,8.25
2023-05-09T21:14:25.307Z,7.72
2023-05-09T21:16:55.026Z,8.60
2023-05-09T21:19:22.848Z,8.35
2023-05-09T21:21:51.941Z,7.78
2023-05-09T21:24:19.701Z,8.43
2023-05-09T21:26:47.813Z,9.63
2023-05-09T21:29:15.552Z,7.97
2023-05-09T21:31:43.316Z,9.05
2023-05-09T21:34:11.175Z,14.23
2023-05-09T21:36:39.221Z,8.52
2023-05-09T21:39:09.625Z,8.15
2023-05-09T21:41:38.046Z,7.97
2023-05-09T21:44:07.266Z,8.10
2023-05-09T21:46:36.046Z,8.98
2023-05-09T21:49:04.018Z,8.88
2023-05-09T21:51:33.389Z,8.07
2023-05-09T21:54:01.124Z,8.40
2023-05-09T21:56:30.347Z,9.13
2023-05-09T21:58:58.020Z,9.10
2023-05-09T22:01:25.714Z,8.98
2023-05-09T22:03:53.527Z,9.20
2023-05-09T22:06:21.293Z,9.20
2023-05-09T22:08:51.001Z,12.73
2023-05-09T22:11:18.939Z,9.38
2023-05-09T22:13:47.933Z,10.43
2023-05-09T22:16:16.046Z,10.48
2023-05-09T22:18:43.695Z,9.38
2023-05-09T22:21:11.303Z,8.35
2023-05-09T22:23:38.961Z,8.88
2023-05-09T22:26:06.671Z,9.70
2023-05-09T22:28:34.346Z,9.48
2023-05-09T22:31:03.298Z,10.20
2023-05-09T22:33:30.929Z,11.20
2023-05-09T22:35:58.510Z,9.85
2023-05-09T22:38:26.101Z,9.38
2023-05-09T22:40:53.816Z,9.07
2023-05-09T22:43:21.481Z,9.77
2023-05-09T22:45:49.224Z,10.00
2023-05-09T22:48:18.274Z,12.98
2023-05-09T22:50:45.928Z,10.27
2023-05-09T22:53:13.516Z,10.32
2023-05-09T22:55:41.422Z,13.98
2023-05-09T22:58:09.285Z,11.20
2023-05-09T23:00:37.093Z,10.68
2023-05-09T23:03:05.083Z,11.13
2023-05-09T23:05:34.218Z,13.45
2023-05-09T23:08:01.918Z,15.23
2023-05-09T23:10:29.603Z,15.70
2023-05-09T23:12:57.278Z,15.02
2023-05-09T23:15:24.967Z,13.98
2023-05-09T23:17:52.933Z,15.55
2023-05-09T23:20:20.743Z,16.30
2023-05-09T23:22:49.966Z,16.92
2023-05-09T23:25:17.658Z,15.90
2023-05-09T23:27:46.791Z,15.80
2023-05-09T23:30:14.826Z,15.82
